createdAt,value
2018-08-25T00:00:44.310Z,19.55
2018-08-25T00:01:48.595Z,19.55
2018-08-25T00:02:52.818Z,19.56
2018-08-25T00:03:57.362Z,19.54
2018-08-25T00:05:01.611Z,19.54
2018-08-25T00:06:06.019Z,19.53
2018-08-25T00:07:10.315Z,19.54
2018-08-25T00:08:14.495Z,19.54
2018-08-25T00:09:18.735Z,19.54
2018-08-25T00:10:22.942Z,19.53
2018-08-25T00:11:27.119Z,19.54
2018-08-25T00:12:31.283Z,19.54
2018-08-25T00:13:35.456Z,19.54
2018-08-25T00:14:39.642Z,19.53
2018-08-25T00:15:43.855Z,19.52
2018-08-25T00:16:48.173Z,19.49
2018-08-25T00:17:52.519Z,19.48
2018-08-25T00:18:56.719Z,19.47
2018-08-25T00:20:00.914Z,19.45
2018-08-25T00:21:05.403Z,19.44
2018-08-25T00:22:09.568Z,19.44
2018-08-25T00:23:13.815Z,19.42
2018-08-25T00:24:17.976Z,19.42
2018-08-25T00:25:22.223Z,19.42
2018-08-25T00:26:26.489Z,19.42
2018-08-25T00:27:30.838Z,19.41
2018-08-25T00:28:34.978Z,19.41
2018-08-25T00:29:39.153Z,19.41
2018-08-25T00:30:48.683Z,19.41
2018-08-25T00:31:53.371Z,19.41
2018-08-25T00:32:57.534Z,19.39
2018-08-25T00:34:01.846Z,19.39
2018-08-25T00:35:06.020Z,19.39
2018-08-25T00:36:10.205Z,19.39
2018-08-25T00:37:14.399Z,19.38
2018-08-25T00:38:18.587Z,19.39
2018-08-25T00:39:22.751Z,19.40
2018-08-25T00:40:27.081Z,19.40
2018-08-25T00:41:31.235Z,19.40
2018-08-25T00:42:35.467Z,19.38
2018-08-25T00:43:39.720Z,19.38
2018-08-25T00:44:44.022Z,19.36
2018-08-25T00:45:48.243Z,19.36
2018-08-25T00:46:52.449Z,19.35
2018-08-25T00:47:56.664Z,19.33
2018-08-25T00:49:00.995Z,19.33
2018-08-25T00:50:05.289Z,19.33
2018-08-25T00:51:09.530Z,19.32
2018-08-25T00:52:13.912Z,19.32
2018-08-25T00:53:18.124Z,19.31
2018-08-25T00:54:22.417Z,19.33
2018-08-25T00:55:26.683Z,19.33
2018-08-25T00:56:30.866Z,19.32
2018-08-25T00:57:35.075Z,19.30
2018-08-25T00:58:39.347Z,19.28
2018-08-25T00:59:43.550Z,19.27
2018-08-25T01:00:48.300Z,19.26
2018-08-25T01:01:52.483Z,19.26
2018-08-25T01:02:56.690Z,19.25
2018-08-25T01:04:00.905Z,19.24
2018-08-25T01:05:05.096Z,19.22
2018-08-25T01:06:09.363Z,19.21
2018-08-25T01:07:13.523Z,19.20
2018-08-25T01:08:17.740Z,19.19
2018-08-25T01:09:22.314Z,19.19
2018-08-25T01:10:26.518Z,19.18
2018-08-25T01:11:30.720Z,19.16
2018-08-25T01:12:35.166Z,19.16
2018-08-25T01:13:39.655Z,19.14
2018-08-25T01:14:43.907Z,19.13
2018-08-25T01:15:48.626Z,19.12
2018-08-25T01:16:52.720Z,19.12
2018-08-25T01:17:56.972Z,19.13
2018-08-25T01:19:01.090Z,19.11
2018-08-25T01:20:05.436Z,19.09
2018-08-25T01:21:09.762Z,19.08
2018-08-25T01:22:13.943Z,19.05
2018-08-25T01:23:18.185Z,19.06
2018-08-25T01:24:22.381Z,19.06
2018-08-25T01:25:26.587Z,19.06
2018-08-25T01:26:30.825Z,19.06
2018-08-25T01:27:35.034Z,19.06
2018-08-25T01:28:39.182Z,19.06
2018-08-25T01:29:43.355Z,19.06
2018-08-25T01:30:47.543Z,19.05
2018-08-25T01:31:52.203Z,19.05
2018-08-25T01:32:56.364Z,19.06
2018-08-25T01:34:01.483Z,19.06
2018-08-25T01:35:05.818Z,19.06
2018-08-25T01:36:10.158Z,19.07
2018-08-25T01:37:14.340Z,19.08
2018-08-25T01:38:18.508Z,19.09
2018-08-25T01:39:22.735Z,19.09
2018-08-25T01:40:26.907Z,19.11
2018-08-25T01:41:31.232Z,19.12
2018-08-25T01:42:35.375Z,19.12
2018-08-25T01:43:39.781Z,19.13
2018-08-25T01:44:44.103Z,19.13
2018-08-25T01:45:48.263Z,19.14
2018-08-25T01:46:52.476Z,19.15
2018-08-25T01:47:56.770Z,19.14
2018-08-25T01:49:00.926Z,19.15
2018-08-25T01:50:05.282Z,19.16
2018-08-25T01:51:09.429Z,19.15
2018-08-25T01:52:13.898Z,19.16
2018-08-25T01:53:18.066Z,19.16
2018-08-25T01:54:22.240Z,19.18
2018-08-25T01:55:26.600Z,19.18
2018-08-25T01:56:30.811Z,19.18
2018-08-25T01:57:35.238Z,19.17
2018-08-25T01:58:39.469Z,19.16
2018-08-25T01:59:43.695Z,19.17
2018-08-25T02:00:47.886Z,19.17
2018-08-25T02:01:52.183Z,19.18
2018-08-25T02:02:56.367Z,19.18
2018-08-25T02:04:00.541Z,19.19
2018-08-25T02:05:04.699Z,19.19
2018-08-25T02:06:08.876Z,19.19
2018-08-25T02:07:13.037Z,19.20
2018-08-25T02:08:17.254Z,19.20
2018-08-25T02:09:21.453Z,19.20
2018-08-25T02:10:25.620Z,19.21
2018-08-25T02:11:29.795Z,19.21
2018-08-25T02:12:33.954Z,19.20
2018-08-25T02:13:38.142Z,19.19
2018-08-25T02:14:42.414Z,19.19
2018-08-25T02:15:46.584Z,19.19
2018-08-25T02:16:50.923Z,19.20
2018-08-25T02:17:55.399Z,19.19
2018-08-25T02:18:59.642Z,19.18
2018-08-25T02:20:04.121Z,19.19
2018-08-25T02:21:08.331Z,19.17
2018-08-25T02:22:12.512Z,19.16
2018-08-25T02:23:16.690Z,19.13
2018-08-25T02:24:20.875Z,19.10
2018-08-25T02:25:25.284Z,19.07
2018-08-25T02:26:29.455Z,19.05
2018-08-25T02:27:33.627Z,19.02
2018-08-25T02:28:38.000Z,19.00
2018-08-25T02:29:42.185Z,18.99
2018-08-25T02:30:46.380Z,18.98
2018-08-25T02:31:50.642Z,18.98
2018-08-25T02:32:54.867Z,19.01
2018-08-25T02:33:59.071Z,19.01
2018-08-25T02:35:03.363Z,19.02
2018-08-25T02:36:07.787Z,19.02
2018-08-25T02:37:12.203Z,19.04
2018-08-25T02:38:16.380Z,19.03
2018-08-25T02:39:20.561Z,19.03
2018-08-25T02:40:26.935Z,19.02
2018-08-25T02:41:31.122Z,19.02
2018-08-25T02:42:35.639Z,19.00
2018-08-25T02:43:40.107Z,19.00
2018-08-25T02:44:44.293Z,19.00
2018-08-25T02:45:48.507Z,19.00
2018-08-25T02:46:54.117Z,18.98
2018-08-25T02:47:58.814Z,18.98
2018-08-25T02:49:02.975Z,18.98
2018-08-25T02:50:07.191Z,18.98
2018-08-25T02:51:11.575Z,18.96
2018-08-25T02:52:16.044Z,18.95
2018-08-25T02:53:20.192Z,18.93
2018-08-25T02:54:24.415Z,18.91
2018-08-25T02:55:28.684Z,18.89
2018-08-25T02:56:33.068Z,18.87
2018-08-25T02:57:37.247Z,18.84
2018-08-25T02:58:41.478Z,18.81
2018-08-25T02:59:45.836Z,18.78
2018-08-25T03:00:50.019Z,18.74
2018-08-25T03:01:54.268Z,18.70
2018-08-25T03:02:58.503Z,18.68
2018-08-25T03:04:02.655Z,18.65
2018-08-25T03:05:06.875Z,18.62
2018-08-25T03:06:11.064Z,18.58
2018-08-25T03:07:15.324Z,18.54
2018-08-25T03:08:19.468Z,18.48
2018-08-25T03:09:23.951Z,18.44
2018-08-25T03:10:28.121Z,18.41
2018-08-25T03:11:32.510Z,18.35
2018-08-25T03:12:36.750Z,18.31
2018-08-25T03:13:40.936Z,18.27
2018-08-25T03:14:45.274Z,18.18
2018-08-25T03:15:49.656Z,18.09
2018-08-25T03:16:53.847Z,18.02
2018-08-25T03:17:58.067Z,17.95
2018-08-25T03:19:02.411Z,17.90
2018-08-25T03:20:06.576Z,17.84
2018-08-25T03:21:10.759Z,17.79
2018-08-25T03:22:14.907Z,17.76
2018-08-25T03:23:19.102Z,17.73
2018-08-25T03:24:23.308Z,17.67
2018-08-25T03:25:27.456Z,17.61
2018-08-25T03:26:31.657Z,17.58
2018-08-25T03:27:36.039Z,17.54
2018-08-25T03:28:40.383Z,17.54
2018-08-25T03:29:44.759Z,17.54
2018-08-25T03:30:48.931Z,17.55
2018-08-25T03:31:53.107Z,17.54
2018-08-25T03:32:57.309Z,17.52
2018-08-25T03:34:01.579Z,17.48
2018-08-25T03:35:05.871Z,17.44
2018-08-25T03:36:10.049Z,17.42
2018-08-25T03:37:14.298Z,17.38
2018-08-25T03:38:18.501Z,17.35
2018-08-25T03:39:22.716Z,17.32
2018-08-25T03:40:27.103Z,17.31
2018-08-25T03:41:31.299Z,17.32
2018-08-25T03:42:35.525Z,17.31
2018-08-25T03:43:39.674Z,17.32
2018-08-25T03:44:44.011Z,17.33
2018-08-25T03:45:48.140Z,17.32
2018-08-25T03:46:52.355Z,17.33
2018-08-25T03:47:56.535Z,17.33
2018-08-25T03:49:00.720Z,17.36
2018-08-25T03:50:05.071Z,17.35
2018-08-25T03:51:09.285Z,17.33
2018-08-25T03:52:13.594Z,17.34
2018-08-25T03:53:17.804Z,17.36
2018-08-25T03:54:21.974Z,17.37
2018-08-25T03:55:26.228Z,17.40
2018-08-25T03:56:30.411Z,17.41
2018-08-25T03:57:34.568Z,17.43
2018-08-25T03:58:38.736Z,17.43
2018-08-25T03:59:43.116Z,17.43
2018-08-25T04:00:47.682Z,17.44
2018-08-25T04:01:51.843Z,17.46
2018-08-25T04:02:56.026Z,17.47
2018-08-25T04:04:00.223Z,17.48
2018-08-25T04:05:04.927Z,17.47
2018-08-25T04:06:09.131Z,17.45
2018-08-25T04:07:13.474Z,17.45
2018-08-25T04:08:17.829Z,17.45
2018-08-25T04:09:22.169Z,17.45
2018-08-25T04:10:26.667Z,17.45
2018-08-25T04:11:30.851Z,17.45
2018-08-25T04:12:34.991Z,17.46
2018-08-25T04:13:39.138Z,17.47
2018-08-25T04:14:43.392Z,17.47
2018-08-25T04:15:47.728Z,17.48
2018-08-25T04:16:51.872Z,17.47
2018-08-25T04:17:56.010Z,17.48
2018-08-25T04:19:00.227Z,17.49
2018-08-25T04:20:04.419Z,17.49
2018-08-25T04:21:08.632Z,17.49
2018-08-25T04:22:12.800Z,17.49
2018-08-25T04:23:16.950Z,17.48
2018-08-25T04:24:21.495Z,17.47
2018-08-25T04:25:25.652Z,17.47
2018-08-25T04:26:29.815Z,17.46
2018-08-25T04:27:34.088Z,17.45
2018-08-25T04:28:38.204Z,17.45
2018-08-25T04:29:42.395Z,17.45
2018-08-25T04:30:46.554Z,17.44
2018-08-25T04:31:50.908Z,17.42
2018-08-25T04:32:55.100Z,17.43
2018-08-25T04:33:59.252Z,17.42
2018-08-25T04:35:03.446Z,17.42
2018-08-25T04:36:07.810Z,17.40
2018-08-25T04:37:11.988Z,17.36
2018-08-25T04:38:16.240Z,17.32
2018-08-25T04:39:20.397Z,17.27
2018-08-25T04:40:24.583Z,17.22
2018-08-25T04:41:28.725Z,17.15
2018-08-25T04:42:32.884Z,17.09
2018-08-25T04:43:37.091Z,17.04
2018-08-25T04:44:41.222Z,17.01
2018-08-25T04:45:45.564Z,16.97
2018-08-25T04:46:49.735Z,16.92
2018-08-25T04:47:53.890Z,16.90
2018-08-25T04:48:58.318Z,16.86
2018-08-25T04:50:02.591Z,16.84
2018-08-25T04:51:06.785Z,16.80
2018-08-25T04:52:11.113Z,16.76
2018-08-25T04:53:15.275Z,16.72
2018-08-25T04:54:19.777Z,16.70
2018-08-25T04:55:23.959Z,16.69
2018-08-25T04:56:28.183Z,16.68
2018-08-25T04:57:32.403Z,16.70
2018-08-25T04:58:36.741Z,16.67
2018-08-25T04:59:41.060Z,16.67
2018-08-25T05:00:45.196Z,16.64
2018-08-25T05:01:49.412Z,16.63
2018-08-25T05:02:53.777Z,16.61
2018-08-25T05:03:57.929Z,16.60
2018-08-25T05:05:02.190Z,16.59
2018-08-25T05:06:06.392Z,16.56
2018-08-25T05:07:10.671Z,16.54
2018-08-25T05:08:14.846Z,16.52
2018-08-25T05:09:19.122Z,16.50
2018-08-25T05:10:23.343Z,16.48
2018-08-25T05:11:27.835Z,16.46
2018-08-25T05:12:31.981Z,16.45
2018-08-25T05:13:36.122Z,16.45
2018-08-25T05:14:40.274Z,16.44
2018-08-25T05:15:44.488Z,16.43
2018-08-25T05:16:48.772Z,16.43
2018-08-25T05:17:52.920Z,16.45
2018-08-25T05:18:57.092Z,16.45
2018-08-25T05:20:01.375Z,16.47
2018-08-25T05:21:05.645Z,16.46
2018-08-25T05:22:10.075Z,16.47
2018-08-25T05:23:14.260Z,16.48
2018-08-25T05:24:18.437Z,16.51
2018-08-25T05:25:22.802Z,16.52
2018-08-25T05:26:26.958Z,16.55
2018-08-25T05:27:31.287Z,16.56
2018-08-25T05:28:35.432Z,16.55
2018-08-25T05:29:39.623Z,16.54
2018-08-25T05:30:43.963Z,16.55
2018-08-25T05:31:48.136Z,16.56
2018-08-25T05:32:52.284Z,16.55
2018-08-25T05:33:56.636Z,16.57
2018-08-25T05:35:00.751Z,16.55
2018-08-25T05:36:04.903Z,16.56
2018-08-25T05:37:09.099Z,16.55
2018-08-25T05:38:13.263Z,16.54
2018-08-25T05:39:17.394Z,16.53
2018-08-25T05:40:21.738Z,16.51
2018-08-25T05:41:25.982Z,16.52
2018-08-25T05:42:30.215Z,16.54
2018-08-25T05:43:34.421Z,16.53
2018-08-25T05:44:38.714Z,16.54
2018-08-25T05:45:43.212Z,16.55
2018-08-25T05:46:47.352Z,16.54
2018-08-25T05:47:51.532Z,16.54
2018-08-25T05:48:55.708Z,16.54
2018-08-25T05:49:59.890Z,16.55
2018-08-25T05:51:04.107Z,16.55
2018-08-25T05:52:08.303Z,16.55
2018-08-25T05:53:12.479Z,16.59
2018-08-25T05:54:16.653Z,16.61
2018-08-25T05:55:20.793Z,16.66
2018-08-25T05:56:25.229Z,16.69
2018-08-25T05:57:29.642Z,16.72
2018-08-25T05:58:33.892Z,16.74
2018-08-25T05:59:38.040Z,16.78
2018-08-25T06:00:42.289Z,16.79
2018-08-25T06:01:46.496Z,16.82
2018-08-25T06:02:50.687Z,16.82
2018-08-25T06:03:55.212Z,16.81
2018-08-25T06:04:59.357Z,16.82
2018-08-25T06:06:03.499Z,16.83
2018-08-25T06:07:07.760Z,16.84
2018-08-25T06:08:11.943Z,16.84
2018-08-25T06:09:16.132Z,16.86
2018-08-25T06:10:20.347Z,16.88
2018-08-25T06:11:24.476Z,16.89
2018-08-25T06:12:29.174Z,16.90
2018-08-25T06:13:33.400Z,16.92
2018-08-25T06:14:37.673Z,16.96
2018-08-25T06:15:42.093Z,17.00
2018-08-25T06:16:46.273Z,17.04
2018-08-25T06:17:50.461Z,17.10
2018-08-25T06:18:54.675Z,17.14
2018-08-25T06:19:58.914Z,17.18
2018-08-25T06:21:03.147Z,17.18
2018-08-25T06:22:07.327Z,17.19
2018-08-25T06:23:11.539Z,17.19
2018-08-25T06:24:15.863Z,17.21
2018-08-25T06:25:20.079Z,17.21
2018-08-25T06:26:24.259Z,17.21
2018-08-25T06:27:28.454Z,17.22
2018-08-25T06:28:32.899Z,17.24
2018-08-25T06:29:37.088Z,17.26
2018-08-25T06:30:41.292Z,17.26
2018-08-25T06:31:45.453Z,17.24
2018-08-25T06:32:49.622Z,17.22
2018-08-25T06:33:53.906Z,17.19
2018-08-25T06:34:58.096Z,17.18
2018-08-25T06:36:02.471Z,17.17
2018-08-25T06:37:06.675Z,17.15
2018-08-25T06:38:11.110Z,17.15
2018-08-25T06:39:15.243Z,17.15
2018-08-25T06:40:19.670Z,17.16
2018-08-25T06:41:23.811Z,17.19
2018-08-25T06:42:28.021Z,17.22
2018-08-25T06:43:32.150Z,17.23
2018-08-25T06:44:36.352Z,17.21
2018-08-25T06:45:40.536Z,17.19
2018-08-25T06:46:44.716Z,17.21
2018-08-25T06:47:48.935Z,17.22
2018-08-25T06:48:53.095Z,17.27
2018-08-25T06:49:57.484Z,17.29
2018-08-25T06:51:01.672Z,17.34
2018-08-25T06:52:06.464Z,17.38
2018-08-25T06:53:10.834Z,17.42
2018-08-25T06:54:15.001Z,17.48
2018-08-25T06:55:19.212Z,17.49
2018-08-25T06:56:23.379Z,17.52
2018-08-25T06:57:27.591Z,17.54
2018-08-25T06:58:31.762Z,17.54
2018-08-25T06:59:36.131Z,17.54
2018-08-25T07:00:40.238Z,17.54
2018-08-25T07:01:44.437Z,17.56
2018-08-25T07:02:48.643Z,17.60
2018-08-25T07:03:52.904Z,17.66
2018-08-25T07:04:57.084Z,17.70
2018-08-25T07:06:01.292Z,17.73
2018-08-25T07:07:05.802Z,17.74
2018-08-25T07:08:09.992Z,17.73
2018-08-25T07:09:14.263Z,17.75
2018-08-25T07:10:18.868Z,17.75
2018-08-25T07:11:23.129Z,17.75
2018-08-25T07:12:27.271Z,17.76
2018-08-25T07:13:31.823Z,17.74
2018-08-25T07:14:36.002Z,17.75
2018-08-25T07:15:40.259Z,17.74
2018-08-25T07:16:44.469Z,17.74
2018-08-25T07:17:48.665Z,17.73
2018-08-25T07:18:52.903Z,17.71
2018-08-25T07:19:57.153Z,17.69
2018-08-25T07:21:01.348Z,17.68
2018-08-25T07:23:09.013Z,17.69
2018-08-25T07:24:13.275Z,17.67
2018-08-25T07:25:17.503Z,17.67
2018-08-25T07:26:21.762Z,17.69
2018-08-25T07:27:25.911Z,17.72
2018-08-25T07:28:30.099Z,17.77
2018-08-25T07:29:34.294Z,17.80
2018-08-25T07:30:38.454Z,17.78
2018-08-25T07:31:42.602Z,17.73
2018-08-25T07:32:46.863Z,17.70
2018-08-25T07:33:51.339Z,17.72
2018-08-25T07:34:55.739Z,17.75
2018-08-25T07:35:59.955Z,17.77
2018-08-25T07:37:04.140Z,17.81
2018-08-25T07:38:08.420Z,17.83
2018-08-25T07:39:13.734Z,17.85
2018-08-25T07:40:17.940Z,17.87
2018-08-25T07:41:22.118Z,17.90
2018-08-25T07:42:26.318Z,17.91
2018-08-25T07:43:30.504Z,17.94
2018-08-25T07:44:34.715Z,17.94
2018-08-25T07:45:38.951Z,17.95
2018-08-25T07:46:43.205Z,17.91
2018-08-25T07:47:47.513Z,17.88
2018-08-25T07:48:51.820Z,17.88
2018-08-25T07:49:56.086Z,17.88
2018-08-25T07:51:00.385Z,17.92
2018-08-25T07:52:04.539Z,17.98
2018-08-25T07:53:08.847Z,18.02
2018-08-25T07:54:13.060Z,18.04
2018-08-25T07:55:17.255Z,18.00
2018-08-25T07:56:21.419Z,18.01
2018-08-25T07:57:25.767Z,18.04
2018-08-25T07:58:30.267Z,18.05
2018-08-25T07:59:34.407Z,18.04
2018-08-25T08:00:38.568Z,18.06
2018-08-25T08:01:42.945Z,18.07
2018-08-25T08:02:47.202Z,18.09
2018-08-25T08:03:51.348Z,18.10
2018-08-25T08:04:55.533Z,18.13
2018-08-25T08:05:59.729Z,18.18
2018-08-25T08:07:04.229Z,18.23
2018-08-25T08:08:08.420Z,18.29
2018-08-25T08:09:12.639Z,18.33
2018-08-25T08:10:16.796Z,18.36
2018-08-25T08:11:21.048Z,18.36
2018-08-25T08:12:25.357Z,18.39
2018-08-25T08:13:29.664Z,18.39
2018-08-25T08:14:34.135Z,18.40
2018-08-25T08:15:38.303Z,18.42
2018-08-25T08:16:42.505Z,18.42
2018-08-25T08:17:46.684Z,18.43
2018-08-25T08:18:50.870Z,18.44
2018-08-25T08:19:55.027Z,18.45
2018-08-25T08:20:59.171Z,18.46
2018-08-25T08:22:03.339Z,18.44
2018-08-25T08:23:07.587Z,18.44
2018-08-25T08:24:11.776Z,18.47
2018-08-25T08:25:15.950Z,18.46
2018-08-25T08:26:20.125Z,18.48
2018-08-25T08:27:24.287Z,18.51
2018-08-25T08:28:28.537Z,18.56
2018-08-25T08:29:32.661Z,18.58
2018-08-25T08:30:36.994Z,18.59
2018-08-25T08:31:41.161Z,18.58
2018-08-25T08:32:45.457Z,18.60
2018-08-25T08:33:49.630Z,18.65
2018-08-25T08:34:53.972Z,18.70
2018-08-25T08:35:58.107Z,18.73
2018-08-25T08:37:02.246Z,18.72
2018-08-25T08:38:06.431Z,18.71
2018-08-25T08:39:10.949Z,18.71
2018-08-25T08:40:15.122Z,18.69
2018-08-25T08:41:19.816Z,18.66
2018-08-25T08:42:24.007Z,18.63
2018-08-25T08:43:28.122Z,18.61
2018-08-25T08:44:32.329Z,18.57
2018-08-25T08:45:36.533Z,18.55
2018-08-25T08:46:40.700Z,18.53
2018-08-25T08:47:44.886Z,18.52
2018-08-25T08:48:49.202Z,18.49
2018-08-25T08:49:53.409Z,18.48
2018-08-25T08:50:57.695Z,18.49
2018-08-25T08:52:02.276Z,18.49
2018-08-25T08:53:06.850Z,18.47
2018-08-25T08:54:11.028Z,18.45
2018-08-25T08:55:15.215Z,18.43
2018-08-25T08:56:19.423Z,18.38
2018-08-25T08:57:23.607Z,18.32
2018-08-25T08:58:27.782Z,18.29
2018-08-25T08:59:31.914Z,18.26
2018-08-25T09:00:36.121Z,18.30
2018-08-25T09:01:40.272Z,18.29
2018-08-25T09:02:44.539Z,18.31
2018-08-25T09:03:48.732Z,18.32
2018-08-25T09:04:52.983Z,18.33
2018-08-25T09:05:57.177Z,18.39
2018-08-25T09:07:01.559Z,18.44
2018-08-25T09:08:06.009Z,18.47
2018-08-25T09:09:10.888Z,18.49
2018-08-25T09:10:15.229Z,18.47
2018-08-25T09:11:19.468Z,18.44
2018-08-25T09:12:23.635Z,18.43
2018-08-25T09:13:27.793Z,18.39
2018-08-25T09:14:31.947Z,18.36
2018-08-25T09:15:36.360Z,18.34
2018-08-25T09:16:40.544Z,18.33
2018-08-25T09:17:44.749Z,18.29
2018-08-25T09:18:49.034Z,18.26
2018-08-25T09:19:53.236Z,18.21
2018-08-25T09:20:57.424Z,18.18
2018-08-25T09:22:01.632Z,18.17
2018-08-25T09:23:05.892Z,18.21
2018-08-25T09:24:10.096Z,18.28
2018-08-25T09:25:14.275Z,18.36
2018-08-25T09:26:18.431Z,18.41
2018-08-25T09:27:22.719Z,18.46
2018-08-25T09:28:26.889Z,18.52
2018-08-25T09:29:31.057Z,18.58
2018-08-25T09:30:35.487Z,18.59
2018-08-25T09:31:39.709Z,18.58
2018-08-25T09:32:44.235Z,18.57
2018-08-25T09:33:48.503Z,18.55
2018-08-25T09:34:52.735Z,18.54
2018-08-25T09:35:56.954Z,18.56
2018-08-25T09:37:01.275Z,18.57
2018-08-25T09:38:05.837Z,18.57
2018-08-25T09:39:11.090Z,18.57
2018-08-25T09:40:15.880Z,18.57
2018-08-25T09:41:20.003Z,18.55
2018-08-25T09:42:24.194Z,18.56
2018-08-25T09:43:28.423Z,18.55
2018-08-25T09:44:32.731Z,18.56
2018-08-25T09:45:36.935Z,18.56
2018-08-25T09:46:41.214Z,18.55
2018-08-25T09:47:45.449Z,18.56
2018-08-25T09:48:49.872Z,18.56
2018-08-25T09:49:54.064Z,18.57
2018-08-25T09:50:58.243Z,18.62
2018-08-25T09:52:02.453Z,18.67
2018-08-25T09:53:06.795Z,18.72
2018-08-25T09:54:11.027Z,18.77
2018-08-25T09:55:15.323Z,18.83
2018-08-25T09:56:19.582Z,18.89
2018-08-25T09:57:23.909Z,18.96
2018-08-25T09:58:28.071Z,19.02
2018-08-25T09:59:32.319Z,19.06
2018-08-25T10:00:36.614Z,19.09
2018-08-25T10:01:46.055Z,19.11
2018-08-25T10:02:50.240Z,19.13
2018-08-25T10:03:54.425Z,19.14
2018-08-25T10:04:58.684Z,19.17
2018-08-25T10:06:02.971Z,19.18
2018-08-25T10:07:07.351Z,19.16
2018-08-25T10:08:11.513Z,19.17
2018-08-25T10:09:15.696Z,19.17
2018-08-25T10:10:19.899Z,19.20
2018-08-25T10:11:24.422Z,19.24
2018-08-25T10:12:28.596Z,19.29
2018-08-25T10:13:32.809Z,19.31
2018-08-25T10:14:37.003Z,19.34
2018-08-25T10:15:41.469Z,19.34
2018-08-25T10:16:45.737Z,19.36
2018-08-25T10:17:49.955Z,19.38
2018-08-25T10:18:54.133Z,19.42
2018-08-25T10:19:58.361Z,19.47
2018-08-25T10:21:02.891Z,19.50
2018-08-25T10:22:07.113Z,19.52
2018-08-25T10:23:11.814Z,19.54
2018-08-25T10:24:16.005Z,19.51
2018-08-25T10:25:20.409Z,19.46
2018-08-25T10:26:24.665Z,19.39
2018-08-25T10:27:28.964Z,19.35
2018-08-25T10:28:33.183Z,19.33
2018-08-25T10:29:37.571Z,19.34
2018-08-25T10:30:41.828Z,19.36
2018-08-25T10:31:46.049Z,19.40
2018-08-25T10:32:50.255Z,19.45
2018-08-25T10:33:54.483Z,19.53
2018-08-25T10:34:58.873Z,19.58
2018-08-25T10:36:03.061Z,19.62
2018-08-25T10:37:07.292Z,19.67
2018-08-25T10:38:11.623Z,19.68
2018-08-25T10:39:15.823Z,19.66
2018-08-25T10:40:20.004Z,19.65
2018-08-25T10:41:24.169Z,19.62
2018-08-25T10:42:28.416Z,19.62
2018-08-25T10:43:32.582Z,19.64
2018-08-25T10:44:37.024Z,19.68
2018-08-25T10:45:41.307Z,19.71
2018-08-25T10:46:45.640Z,19.77
2018-08-25T10:47:49.856Z,19.82
2018-08-25T10:48:54.071Z,19.83
2018-08-25T10:49:58.280Z,19.80
2018-08-25T10:51:02.537Z,19.76
2018-08-25T10:52:07.033Z,19.72
2018-08-25T10:53:11.256Z,19.71
2018-08-25T10:54:21.870Z,19.70
2018-08-25T10:55:26.044Z,19.68
2018-08-25T10:56:30.244Z,19.65
2018-08-25T10:57:34.561Z,19.61
2018-08-25T10:58:38.962Z,19.60
2018-08-25T10:59:43.128Z,19.60
2018-08-25T11:00:47.527Z,19.62
2018-08-25T11:01:51.589Z,19.64
2018-08-25T11:02:55.986Z,19.65
2018-08-25T11:04:00.219Z,19.65
2018-08-25T11:05:04.740Z,19.66
2018-08-25T11:06:08.911Z,19.69
2018-08-25T11:07:13.095Z,19.73
2018-08-25T11:08:17.262Z,19.75
2018-08-25T11:09:21.527Z,19.78
2018-08-25T11:10:26.139Z,19.79
2018-08-25T11:11:30.323Z,19.77
2018-08-25T11:12:34.559Z,19.75
2018-08-25T11:13:38.770Z,19.73
2018-08-25T11:14:43.657Z,19.68
2018-08-25T11:15:48.260Z,19.62
2018-08-25T11:16:52.443Z,19.57
2018-08-25T11:17:56.781Z,19.51
2018-08-25T11:19:01.042Z,19.49
2018-08-25T11:20:05.332Z,19.45
2018-08-25T11:21:09.532Z,19.43
2018-08-25T11:22:13.731Z,19.43
2018-08-25T11:23:17.947Z,19.41
2018-08-25T11:24:22.383Z,19.42
2018-08-25T11:25:26.671Z,19.43
2018-08-25T11:26:30.956Z,19.45
2018-08-25T11:27:35.187Z,19.49
2018-08-25T11:28:39.572Z,19.55
2018-08-25T11:29:43.703Z,19.62
2018-08-25T11:30:47.927Z,19.68
2018-08-25T11:31:52.163Z,19.74
2018-08-25T11:32:56.339Z,19.79
2018-08-25T11:34:00.632Z,19.83
2018-08-25T11:35:05.897Z,19.87
2018-08-25T11:36:10.151Z,19.86
2018-08-25T11:37:14.490Z,19.87
2018-08-25T11:38:18.777Z,19.86
2018-08-25T11:39:22.971Z,19.88
2018-08-25T11:40:27.159Z,19.90
2018-08-25T11:41:32.076Z,19.89
2018-08-25T11:42:36.271Z,19.85
2018-08-25T11:43:40.540Z,19.80
2018-08-25T11:44:44.717Z,19.75
2018-08-25T11:45:48.964Z,19.71
2018-08-25T11:46:53.154Z,19.70
2018-08-25T11:47:57.308Z,19.69
2018-08-25T11:49:01.473Z,19.68
2018-08-25T11:50:06.179Z,19.66
2018-08-25T11:51:10.416Z,19.64
2018-08-25T11:52:14.781Z,19.63
2018-08-25T11:53:18.951Z,19.61
2018-08-25T11:54:23.412Z,19.62
2018-08-25T11:55:27.555Z,19.63
2018-08-25T11:56:32.188Z,19.68
2018-08-25T11:57:36.423Z,19.72
2018-08-25T11:58:40.597Z,19.79
2018-08-25T11:59:44.797Z,19.85
2018-08-25T12:00:49.133Z,19.91
2018-08-25T12:01:53.419Z,19.97
2018-08-25T12:02:57.655Z,20.05
2018-08-25T12:04:02.129Z,20.11
2018-08-25T12:05:06.560Z,20.15
2018-08-25T12:06:10.749Z,20.16
2018-08-25T12:07:14.936Z,20.19
2018-08-25T12:08:19.192Z,20.23
2018-08-25T12:09:23.428Z,20.30
2018-08-25T12:10:27.587Z,20.34
2018-08-25T12:11:31.770Z,20.36
2018-08-25T12:12:35.956Z,20.36
2018-08-25T12:13:40.139Z,20.35
2018-08-25T12:14:44.351Z,20.35
2018-08-25T12:15:48.939Z,20.33
2018-08-25T12:16:53.106Z,20.27
2018-08-25T12:17:57.371Z,20.24
2018-08-25T12:19:01.521Z,20.24
2018-08-25T12:20:06.214Z,20.26
2018-08-25T12:21:10.350Z,20.28
2018-08-25T12:22:14.518Z,20.28
2018-08-25T12:23:18.733Z,20.24
2018-08-25T12:24:22.911Z,20.25
2018-08-25T12:25:27.095Z,20.31
2018-08-25T12:26:31.391Z,20.39
2018-08-25T12:27:35.587Z,20.45
2018-08-25T12:28:39.935Z,20.49
2018-08-25T12:29:44.111Z,20.49
2018-08-25T12:30:48.281Z,20.48
2018-08-25T12:31:52.621Z,20.44
2018-08-25T12:32:57.068Z,20.39
2018-08-25T12:34:01.257Z,20.36
2018-08-25T12:35:05.717Z,20.34
2018-08-25T12:36:09.996Z,20.30
2018-08-25T12:37:14.237Z,20.28
2018-08-25T12:38:18.753Z,20.26
2018-08-25T12:39:23.073Z,20.24
2018-08-25T12:40:27.254Z,20.24
2018-08-25T12:41:31.460Z,20.26
2018-08-25T12:42:35.664Z,20.30
2018-08-25T12:43:39.813Z,20.32
2018-08-25T12:44:44.496Z,20.35
2018-08-25T12:45:48.701Z,20.41
2018-08-25T12:46:53.035Z,20.47
2018-08-25T12:47:57.374Z,20.54
2018-08-25T12:49:01.613Z,20.62
2018-08-25T12:50:05.920Z,20.67
2018-08-25T12:51:10.138Z,20.68
2018-08-25T12:52:14.289Z,20.71
2018-08-25T12:53:18.428Z,20.74
2018-08-25T12:54:22.615Z,20.79
2018-08-25T12:55:26.841Z,20.85
2018-08-25T12:56:30.960Z,20.90
2018-08-25T12:57:35.279Z,20.95
2018-08-25T12:58:39.462Z,20.99
2018-08-25T12:59:46.806Z,21.03
2018-08-25T13:00:51.098Z,21.11
2018-08-25T13:01:55.471Z,21.16
2018-08-25T13:02:59.734Z,21.19
2018-08-25T13:04:06.333Z,21.20
2018-08-25T13:05:10.523Z,21.17
2018-08-25T13:06:14.663Z,21.11
2018-08-25T13:07:18.882Z,21.02
2018-08-25T13:08:23.059Z,20.95
2018-08-25T13:09:27.552Z,20.93
2018-08-25T13:10:31.743Z,20.96
2018-08-25T13:11:36.249Z,20.98
2018-08-25T13:12:40.445Z,20.98
2018-08-25T13:13:44.674Z,20.95
2018-08-25T13:14:48.899Z,20.93
2018-08-25T13:15:53.294Z,20.94
2018-08-25T13:16:57.484Z,20.91
2018-08-25T13:18:01.810Z,20.84
2018-08-25T13:19:06.192Z,20.72
2018-08-25T13:20:10.525Z,20.65
2018-08-25T13:21:14.759Z,20.61
2018-08-25T13:22:18.979Z,20.57
2018-08-25T13:23:23.204Z,20.53
2018-08-25T13:24:27.368Z,20.49
2018-08-25T13:25:31.586Z,20.46
2018-08-25T13:26:35.810Z,20.45
2018-08-25T13:27:40.218Z,20.44
2018-08-25T13:28:44.491Z,20.41
2018-08-25T13:29:48.781Z,20.39
2018-08-25T13:30:53.093Z,20.36
2018-08-25T13:31:57.331Z,20.32
2018-08-25T13:33:01.575Z,20.26
2018-08-25T13:34:05.943Z,20.20
2018-08-25T13:35:10.137Z,20.14
2018-08-25T13:36:14.348Z,20.14
2018-08-25T13:37:18.555Z,20.16
2018-08-25T13:38:22.903Z,20.16
2018-08-25T13:39:27.357Z,20.16
2018-08-25T13:40:31.909Z,20.11
2018-08-25T13:41:36.564Z,20.07
2018-08-25T13:42:40.882Z,20.05
2018-08-25T13:43:45.080Z,20.04
2018-08-25T13:44:49.600Z,20.02
2018-08-25T13:45:53.834Z,19.99
2018-08-25T13:46:58.208Z,19.96
2018-08-25T13:48:02.506Z,19.93
2018-08-25T13:49:06.946Z,19.93